Time;durP1;ratioP1;P1;durP2;ratioP2;P2;SDS_P1;SDS_P2;PMS_P1;PMS_P2;Temp;Humidity;BMP_temperature;BMP_pressure;BME280_temperature;BME280_humidity;BME280_pressure;Samples;Min_cycle;Max_cycle;Signal;HPM_P1;HPM_P2
2022/03/26 00:02:01;;;;;;;46.05;26.10;;;7.80;99.90;;;;;;5075155;28;20086;-75
2022/03/26 00:04:28;;;;;;;50.35;26.50;;;7.70;99.90;;;;;;5074078;28;20020;-74
2022/03/26 00:06:53;;;;;;;48.83;24.95;;;7.70;99.90;;;;;;5074930;28;20037;-75
2022/03/26 00:09:19;;;;;;;50.35;26.98;;;7.70;99.90;;;;;;5075592;28;20492;-74
2022/03/26 00:11:44;;;;;;;49.90;24.90;;;7.70;99.90;;;;;;5074977;28;20024;-74
2022/03/26 00:14:11;;;;;;;56.83;28.05;;;7.70;99.90;;;;;;5074732;28;20032;-74
2022/03/26 00:16:36;;;;;;;51.05;26.33;;;7.60;99.90;;;;;;5075299;28;20051;-74
2022/03/26 00:19:02;;;;;;;53.25;27.13;;;7.70;99.90;;;;;;5074097;28;20013;-75
2022/03/26 00:21:28;;;;;;;50.53;26.73;;;7.60;99.90;;;;;;5074454;28;20152;-73
2022/03/26 00:23:53;;;;;;;55.33;26.08;;;7.60;99.90;;;;;;5075175;28;20503;-74
2022/03/26 00:26:19;;;;;;;53.75;26.52;;;7.60;99.90;;;;;;5073863;28;20048;-74
2022/03/26 00:28:45;;;;;;;48.67;26.38;;;7.60;99.90;;;;;;5074571;28;20048;-75
2022/03/26 00:31:12;;;;;;;50.75;25.98;;;7.60;99.90;;;;;;5074632;28;20125;-74
2022/03/26 00:33:38;;;;;;;46.97;24.55;;;7.70;99.90;;;;;;5073780;28;20020;-74
2022/03/26 00:36:03;;;;;;;52.15;24.88;;;7.60;99.90;;;;;;5074142;28;20020;-75
2022/03/26 00:38:29;;;;;;;47.30;24.65;;;7.60;99.90;;;;;;5074068;28;20054;-74
2022/03/26 00:40:54;;;;;;;62.08;26.92;;;7.50;99.90;;;;;;5073746;28;20032;-75
2022/03/26 00:43:20;;;;;;;48.42;26.48;;;7.40;99.90;;;;;;5074118;28;20387;-74
2022/03/26 00:45:46;;;;;;;55.38;26.27;;;7.50;99.90;;;;;;5075188;28;20024;-76
2022/03/26 00:48:11;;;;;;;56.92;26.27;;;7.50;99.90;;;;;;5075784;28;20098;-75
2022/03/26 00:50:37;;;;;;;56.47;25.70;;;7.50;99.90;;;;;;5074095;28;20070;-75
2022/03/26 00:53:02;;;;;;;49.30;25.23;;;7.40;99.90;;;;;;5074154;28;20025;-75
2022/03/26 00:55:29;;;;;;;50.30;26.90;;;7.50;99.90;;;;;;5073625;28;20044;-74
2022/03/26 00:57:58;;;;;;;53.75;24.77;;;7.40;99.90;;;;;;5074419;28;20027;-75
2022/03/26 01:00:23;;;;;;;53.72;26.88;;;7.50;99.90;;;;;;5073102;28;20032;-73
2022/03/26 01:02:49;;;;;;;53.25;25.83;;;7.50;99.90;;;;;;5074043;28;20047;-74
2022/03/26 01:05:15;;;;;;;53.30;25.45;;;7.50;99.90;;;;;;5073777;28;20024;-74
2022/03/26 01:07:41;;;;;;;53.78;25.13;;;7.50;99.90;;;;;;5073785;28;20064;-74
2022/03/26 01:10:07;;;;;;;46.63;23.88;;;7.50;99.90;;;;;;5074051;28;20066;-75
2022/03/26 01:12:32;;;;;;;50.53;24.50;;;7.40;99.90;;;;;;5074696;28;20028;-75
2022/03/26 01:14:58;;;;;;;45.45;21.77;;;7.40;99.90;;;;;;5073053;28;20066;-73
2022/03/26 01:17:24;;;;;;;44.67;22.73;;;7.40;99.90;;;;;;5073310;28;20055;-74
2022/03/26 01:19:49;;;;;;;49.80;22.75;;;7.40;99.90;;;;;;5073534;28;20095;-75
2022/03/26 01:22:15;;;;;;;44.50;23.08;;;7.30;99.90;;;;;;5072403;28;20086;-75
2022/03/26 01:24:40;;;;;;;47.60;22.85;;;7.30;99.90;;;;;;5073979;28;20031;-74
2022/03/26 01:27:07;;;;;;;55.85;23.60;;;7.30;99.90;;;;;;5073458;28;20110;-75
2022/03/26 01:29:33;;;;;;;51.60;21.25;;;7.30;99.90;;;;;;5072755;28;20043;-74
2022/03/26 01:31:59;;;;;;;45.78;23.45;;;7.40;99.90;;;;;;5073148;28;20021;-75
2022/03/26 01:34:26;;;;;;;44.28;22.60;;;7.30;99.90;;;;;;5072721;28;20020;-75
2022/03/26 01:36:52;;;;;;;51.80;24.05;;;7.30;99.90;;;;;;5072709;28;20025;-75
2022/03/26 01:39:20;;;;;;;51.65;22.40;;;7.30;99.90;;;;;;5073037;28;20432;-75
2022/03/26 01:41:47;;;;;;;49.30;23.45;;;7.30;99.90;;;;;;5054634;28;20047;-74
2022/03/26 01:44:14;;;;;;;47.97;24.15;;;7.30;99.90;;;;;;5072371;28;20031;-75
2022/03/26 01:46:51;;;;;;;47.55;23.15;;;7.30;99.90;;;;;;5073050;28;20032;-74
2022/03/26 01:49:17;;;;;;;53.72;25.80;;;7.20;99.90;;;;;;5072613;28;20480;-74
2022/03/26 01:51:43;;;;;;;48.30;23.77;;;7.20;99.90;;;;;;5072091;28;20028;-74
2022/03/26 01:54:10;;;;;;;48.33;23.38;;;7.20;99.90;;;;;;5072893;28;20021;-74
2022/03/26 01:56:36;;;;;;;48.85;23.02;;;7.20;99.90;;;;;;5072222;28;20072;-75
2022/03/26 01:59:04;;;;;;;46.90;23.17;;;7.20;99.90;;;;;;5072908;28;20027;-76
2022/03/26 02:01:31;;;;;;;46.80;23.88;;;7.20;99.90;;;;;;5072182;28;20059;-76
2022/03/26 02:03:57;;;;;;;53.42;24.88;;;7.10;99.90;;;;;;5072225;28;20021;-75
2022/03/26 02:06:25;;;;;;;47.55;23.45;;;7.10;99.90;;;;;;5072457;28;20395;-75
2022/03/26 02:08:50;;;;;;;52.65;23.88;;;7.10;99.90;;;;;;5072442;28;20059;-74
2022/03/26 02:11:16;;;;;;;51.80;23.73;;;7.10;99.90;;;;;;5071794;28;20021;-74
2022/03/26 02:13:53;;;;;;;53.85;23.52;;;7.00;99.90;;;;;;5072570;28;20028;-74
2022/03/26 02:16:20;;;;;;;51.55;25.02;;;6.90;99.90;;;;;;5072227;28;20025;-75
2022/03/26 02:18:46;;;;;;;47.25;23.33;;;7.00;99.90;;;;;;5072208;28;20074;-75
2022/03/26 02:21:12;;;;;;;53.08;24.40;;;7.00;99.90;;;;;;5072486;28;20033;-75
2022/03/26 02:23:37;;;;;;;52.72;24.63;;;7.10;99.90;;;;;;5073772;28;20036;-75
2022/03/26 02:26:03;;;;;;;51.50;23.58;;;7.00;99.90;;;;;;5074752;28;20025;-75
2022/03/26 02:28:29;;;;;;;50.50;24.45;;;7.00;99.90;;;;;;5074730;28;20530;-75
2022/03/26 02:30:54;;;;;;;51.30;23.13;;;6.90;99.90;;;;;;5073319;28;20040;-74
2022/03/26 02:33:20;;;;;;;49.50;24.15;;;6.90;99.90;;;;;;5072988;28;20077;-75
2022/03/26 02:35:45;;;;;;;50.35;23.70;;;6.80;99.90;;;;;;5074173;28;20025;-76
2022/03/26 02:38:11;;;;;;;42.78;24.27;;;6.80;99.90;;;;;;5072784;28;20464;-75
2022/03/26 02:40:36;;;;;;;42.67;21.60;;;6.80;99.90;;;;;;5071832;28;20388;-74
2022/03/26 02:43:02;;;;;;;51.65;24.58;;;6.70;99.90;;;;;;5072683;28;20476;-75
2022/03/26 02:45:29;;;;;;;53.97;24.88;;;6.80;99.90;;;;;;5071522;28;20029;-74
2022/03/26 02:47:55;;;;;;;45.78;23.20;;;6.80;99.90;;;;;;5071882;28;20036;-74
2022/03/26 02:50:21;;;;;;;45.22;22.27;;;6.70;99.90;;;;;;5071878;28;20036;-74
2022/03/26 02:52:48;;;;;;;50.22;23.30;;;6.70;99.90;;;;;;5071592;28;20028;-75
2022/03/26 02:55:14;;;;;;;48.55;24.13;;;6.70;99.90;;;;;;5071938;28;20024;-75
2022/03/26 02:57:39;;;;;;;46.80;23.63;;;6.80;99.90;;;;;;5072089;28;20074;-75
2022/03/26 03:00:07;;;;;;;43.85;22.95;;;6.80;99.90;;;;;;5071202;28;20082;-74
2022/03/26 03:02:34;;;;;;;48.22;23.27;;;6.80;99.90;;;;;;5072062;28;20052;-74
2022/03/26 03:05:01;;;;;;;48.60;23.15;;;6.70;99.90;;;;;;5074206;28;20082;-75
2022/03/26 03:07:26;;;;;;;51.78;22.95;;;6.70;99.90;;;;;;5075081;28;20060;-73
2022/03/26 03:09:52;;;;;;;47.80;23.20;;;6.70;99.90;;;;;;5076069;28;20033;-75
2022/03/26 03:12:17;;;;;;;47.15;23.05;;;6.70;99.90;;;;;;5075757;28;20017;-74
2022/03/26 03:14:46;;;;;;;51.40;23.40;;;6.60;99.90;;;;;;5075568;28;20021;-75
2022/03/26 03:17:11;;;;;;;55.35;22.02;;;6.60;99.90;;;;;;5075809;28;20171;-74
2022/03/26 03:19:37;;;;;;;49.45;21.73;;;6.60;99.90;;;;;;5075912;28;20028;-76
2022/03/26 03:22:03;;;;;;;39.15;21.77;;;6.60;99.90;;;;;;5075347;28;20033;-75
2022/03/26 03:24:29;;;;;;;52.88;23.45;;;6.70;99.90;;;;;;5075587;28;20120;-75
2022/03/26 03:26:55;;;;;;;45.15;21.90;;;6.60;99.90;;;;;;5075568;28;20120;-75
2022/03/26 03:29:21;;;;;;;46.05;21.95;;;6.60;99.90;;;;;;5075207;28;20016;-75
2022/03/26 03:31:48;;;;;;;47.08;22.10;;;6.60;99.90;;;;;;5075574;28;20114;-75
2022/03/26 03:34:14;;;;;;;57.60;24.27;;;6.60;99.90;;;;;;5057478;28;20107;-75
2022/03/26 03:36:39;;;;;;;46.28;22.83;;;6.60;99.90;;;;;;5075015;28;20099;-76
2022/03/26 03:39:05;;;;;;;52.35;22.77;;;6.60;99.90;;;;;;5075537;28;20488;-74
2022/03/26 03:41:31;;;;;;;48.90;21.83;;;6.60;99.90;;;;;;5074913;28;20037;-75
2022/03/26 03:43:56;;;;;;;49.60;22.35;;;6.60;99.90;;;;;;5075212;28;20452;-75
2022/03/26 03:46:22;;;;;;;46.95;22.88;;;6.60;99.90;;;;;;5075128;28;20033;-75
2022/03/26 03:48:47;;;;;;;51.53;22.10;;;6.60;99.90;;;;;;5080452;28;20016;-74
2022/03/26 03:51:13;;;;;;;51.90;23.08;;;6.60;99.90;;;;;;5074570;28;20036;-75
2022/03/26 03:53:38;;;;;;;46.20;23.42;;;6.60;99.90;;;;;;5075411;28;20025;-74
2022/03/26 03:56:07;;;;;;;54.50;24.85;;;6.60;99.90;;;;;;5074425;28;20032;-75
2022/03/26 03:58:32;;;;;;;49.40;24.15;;;6.60;99.90;;;;;;5075297;28;20020;-74
2022/03/26 04:00:58;;;;;;;50.08;23.88;;;6.60;99.90;;;;;;5075184;28;20365;-75
2022/03/26 04:03:24;;;;;;;61.63;25.67;;;6.50;99.90;;;;;;5074147;28;20020;-74
2022/03/26 04:05:49;;;;;;;55.88;25.00;;;6.50;99.90;;;;;;5075147;28;20423;-74
2022/03/26 04:08:16;;;;;;;58.42;24.73;;;6.60;99.90;;;;;;5074562;28;20060;-74
2022/03/26 04:10:41;;;;;;;55.85;25.08;;;6.60;99.90;;;;;;5074467;28;20029;-75
2022/03/26 04:13:07;;;;;;;49.97;25.15;;;6.60;99.90;;;;;;5074892;28;20051;-75
2022/03/26 04:15:33;;;;;;;58.10;24.55;;;6.60;99.90;;;;;;5074531;28;20468;-75
2022/03/26 04:17:58;;;;;;;58.58;24.27;;;6.50;99.90;;;;;;5074212;28;20037;-74
2022/03/26 04:20:26;;;;;;;54.63;24.77;;;6.50;99.90;;;;;;5074697;28;20032;-75
2022/03/26 04:22:52;;;;;;;59.20;26.90;;;6.50;99.90;;;;;;5076384;28;20031;-75
2022/03/26 04:25:17;;;;;;;52.15;25.30;;;6.50;99.90;;;;;;5075421;28;20025;-75
2022/03/26 04:27:45;;;;;;;59.83;24.67;;;6.50;99.90;;;;;;5075099;28;20042;-75
2022/03/26 04:30:12;;;;;;;54.17;25.35;;;6.40;99.90;;;;;;5074442;28;20031;-75
2022/03/26 04:32:37;;;;;;;63.80;26.67;;;6.40;99.90;;;;;;5074809;28;20039;-75
2022/03/26 04:35:04;;;;;;;54.38;25.65;;;6.40;99.90;;;;;;5080197;28;20024;-75
2022/03/26 04:37:29;;;;;;;59.25;26.98;;;6.30;99.90;;;;;;5084389;28;20028;-75
2022/03/26 04:39:58;;;;;;;61.08;27.65;;;6.30;99.90;;;;;;5082887;28;20069;-75
2022/03/26 04:42:24;;;;;;;49.97;24.52;;;6.30;99.90;;;;;;5076083;28;20067;-74
2022/03/26 04:44:49;;;;;;;61.60;27.73;;;6.30;99.90;;;;;;5075304;28;20070;-75
2022/03/26 04:47:15;;;;;;;59.40;26.05;;;6.30;99.90;;;;;;5074704;28;20047;-74
2022/03/26 04:49:41;;;;;;;61.47;26.13;;;6.30;99.90;;;;;;5074640;28;20035;-75
2022/03/26 04:52:10;;;;;;;67.32;27.63;;;6.30;99.90;;;;;;5074596;28;20033;-74
2022/03/26 04:54:35;;;;;;;60.67;26.92;;;6.30;99.90;;;;;;5074013;28;20421;-75
2022/03/26 04:57:01;;;;;;;62.22;28.27;;;6.30;99.90;;;;;;5074310;28;20166;-74
2022/03/26 04:59:26;;;;;;;65.40;26.83;;;6.30;99.90;;;;;;5073562;28;20035;-75
2022/03/26 05:01:52;;;;;;;66.10;29.30;;;6.30;99.90;;;;;;5073808;28;20053;-74
2022/03/26 05:04:17;;;;;;;60.63;28.67;;;6.30;99.90;;;;;;5073725;28;20075;-75
2022/03/26 05:06:43;;;;;;;51.03;26.08;;;6.30;99.90;;;;;;5073652;28;20107;-74
2022/03/26 05:09:09;;;;;;;66.68;29.38;;;6.20;99.90;;;;;;5073912;28;20024;-75
2022/03/26 05:11:35;;;;;;;69.05;29.85;;;6.20;99.90;;;;;;5074101;28;20033;-75
2022/03/26 05:14:01;;;;;;;61.70;27.65;;;6.20;99.90;;;;;;5073372;28;20028;-74
2022/03/26 05:16:26;;;;;;;59.13;28.05;;;6.10;99.90;;;;;;5073334;28;20087;-74
2022/03/26 05:18:52;;;;;;;61.67;29.35;;;6.10;99.90;;;;;;5073629;28;20017;-75
2022/03/26 05:21:17;;;;;;;63.65;28.65;;;6.10;99.90;;;;;;5072229;28;20035;-74
2022/03/26 05:23:43;;;;;;;63.30;28.02;;;6.10;99.90;;;;;;5073243;28;20074;-75
2022/03/26 05:26:08;;;;;;;61.40;28.90;;;6.00;99.90;;;;;;5072692;28;20437;-75
2022/03/26 05:28:34;;;;;;;68.28;30.98;;;6.00;99.90;;;;;;5072019;28;20027;-74
2022/03/26 05:31:00;;;;;;;69.75;29.17;;;6.00;99.90;;;;;;5073272;28;20123;-75
2022/03/26 05:33:26;;;;;;;60.60;28.05;;;6.00;99.90;;;;;;5072865;28;20040;-74
2022/03/26 05:35:52;;;;;;;54.60;27.17;;;5.90;99.90;;;;;;5073016;28;20082;-74
2022/03/26 05:38:18;;;;;;;64.80;31.20;;;5.90;99.90;;;;;;5072803;28;20107;-74
2022/03/26 05:40:43;;;;;;;59.08;28.10;;;5.80;99.90;;;;;;5072963;28;20124;-76
2022/03/26 05:43:09;;;;;;;69.93;29.77;;;5.80;99.90;;;;;;5072489;28;20050;-75
2022/03/26 05:45:35;;;;;;;69.38;29.67;;;5.80;99.90;;;;;;5073216;28;20024;-74
2022/03/26 05:48:02;;;;;;;66.10;30.15;;;5.80;99.90;;;;;;5072912;28;20028;-74
2022/03/26 05:50:29;;;;;;;64.72;28.20;;;5.80;99.90;;;;;;5072352;28;20031;-75
2022/03/26 05:52:55;;;;;;;59.40;27.10;;;5.80;99.90;;;;;;5072874;28;20029;-75
2022/03/26 05:55:20;;;;;;;52.92;27.08;;;5.70;99.90;;;;;;5072312;28;20124;-75
2022/03/26 05:57:46;;;;;;;58.95;28.02;;;5.70;99.90;;;;;;5072595;28;20074;-75
2022/03/26 06:00:12;;;;;;;56.05;24.88;;;5.70;99.90;;;;;;5072425;28;20029;-75
2022/03/26 06:02:38;;;;;;;48.72;23.73;;;5.70;99.90;;;;;;5072156;28;20028;-73
2022/03/26 06:05:04;;;;;;;60.58;26.42;;;5.70;99.90;;;;;;5072889;28;20028;-75
2022/03/26 06:07:30;;;;;;;51.97;24.35;;;5.80;99.90;;;;;;5072237;28;20270;-75
2022/03/26 06:09:56;;;;;;;50.40;24.20;;;5.70;99.90;;;;;;5074106;28;20032;-74
2022/03/26 06:12:22;;;;;;;45.92;23.08;;;5.80;99.90;;;;;;5077848;28;20066;-75
2022/03/26 06:14:48;;;;;;;64.32;27.85;;;5.80;99.90;;;;;;5072729;28;20024;-74
2022/03/26 06:17:14;;;;;;;64.28;29.40;;;5.70;99.90;;;;;;5071617;28;20062;-74
2022/03/26 06:19:44;;;;;;;67.25;27.70;;;5.80;99.90;;;;;;5072577;28;20027;-76
2022/03/26 06:22:09;;;;;;;61.35;28.83;;;5.80;99.90;;;;;;5072241;28;20037;-75
2022/03/26 06:24:35;;;;;;;63.78;30.98;;;5.90;99.90;;;;;;5080595;28;20028;-74
2022/03/26 06:27:01;;;;;;;68.90;29.75;;;5.90;99.90;;;;;;5073915;28;20028;-74
2022/03/26 06:29:27;;;;;;;73.18;32.35;;;6.00;99.90;;;;;;5073566;28;20047;-74
2022/03/26 06:31:53;;;;;;;73.32;33.67;;;6.00;99.90;;;;;;5070636;28;20056;-74
2022/03/26 06:34:18;;;;;;;71.88;32.40;;;6.10;99.90;;;;;;5070819;28;20024;-74
2022/03/26 06:36:44;;;;;;;79.90;34.97;;;6.20;99.90;;;;;;5071020;28;20028;-74
2022/03/26 06:39:10;;;;;;;71.93;32.50;;;6.30;99.90;;;;;;5071557;28;20036;-74
2022/03/26 06:41:39;;;;;;;78.32;33.22;;;6.40;99.90;;;;;;5071095;28;20079;-74
2022/03/26 06:44:08;;;;;;;73.68;32.78;;;6.50;99.90;;;;;;5070768;28;20013;-74
2022/03/26 06:46:35;;;;;;;70.35;32.85;;;6.60;99.90;;;;;;5070554;28;20028;-75
2022/03/26 06:49:02;;;;;;;69.78;32.05;;;6.70;99.90;;;;;;5071898;28;20024;-75
2022/03/26 06:51:27;;;;;;;71.05;34.08;;;6.70;99.90;;;;;;5073564;28;20024;-75
2022/03/26 06:53:53;;;;;;;74.32;34.33;;;6.80;99.90;;;;;;5074832;28;20174;-74
2022/03/26 06:56:18;;;;;;;85.55;36.03;;;6.90;99.90;;;;;;5072775;28;20040;-74
2022/03/26 06:58:44;;;;;;;76.53;34.00;;;7.00;99.90;;;;;;5071449;28;20393;-76
2022/03/26 07:01:10;;;;;;;75.15;34.85;;;7.00;99.90;;;;;;5070413;28;20047;-74
2022/03/26 07:03:36;;;;;;;83.60;36.75;;;7.10;99.90;;;;;;5071035;28;20019;-74
2022/03/26 07:06:02;;;;;;;74.35;33.38;;;7.20;99.90;;;;;;5070596;28;20017;-75
2022/03/26 07:08:28;;;;;;;72.47;33.78;;;7.20;99.90;;;;;;5070266;28;20048;-75
2022/03/26 07:10:53;;;;;;;78.45;36.03;;;7.30;99.90;;;;;;5070764;28;20023;-73
2022/03/26 07:13:19;;;;;;;76.88;35.17;;;7.40;99.90;;;;;;5070077;28;20013;-72
2022/03/26 07:15:44;;;;;;;64.40;32.08;;;7.50;99.90;;;;;;5068401;28;20347;-72
2022/03/26 07:18:11;;;;;;;71.05;34.15;;;7.60;99.90;;;;;;5068213;28;20052;-72
2022/03/26 07:20:37;;;;;;;72.22;32.97;;;7.60;99.90;;;;;;5068096;28;20097;-72
2022/03/26 07:23:03;;;;;;;69.65;33.60;;;7.70;99.90;;;;;;5071772;28;20021;-73
2022/03/26 07:25:29;;;;;;;66.82;32.33;;;7.80;99.90;;;;;;5069436;28;20027;-71
2022/03/26 07:27:55;;;;;;;70.97;33.53;;;7.90;99.90;;;;;;5073264;28;20025;-72
2022/03/26 07:30:20;;;;;;;63.63;33.20;;;8.00;99.90;;;;;;5070779;28;20036;-73
2022/03/26 07:32:46;;;;;;;67.95;33.67;;;8.10;99.90;;;;;;5070343;28;20095;-71
2022/03/26 07:35:11;;;;;;;77.13;34.03;;;8.20;99.90;;;;;;5069648;28;20028;-71
2022/03/26 07:37:37;;;;;;;73.95;33.55;;;8.30;99.90;;;;;;5071462;28;20028;-73
2022/03/26 07:40:04;;;;;;;65.53;32.05;;;8.40;99.90;;;;;;5071693;28;20090;-72
2022/03/26 07:42:29;;;;;;;72.25;32.15;;;8.40;99.90;;;;;;5071375;28;20032;-72
2022/03/26 07:44:55;;;;;;;67.00;33.22;;;8.50;99.90;;;;;;5071401;28;20017;-72
2022/03/26 07:47:20;;;;;;;72.22;34.13;;;8.60;99.90;;;;;;5070935;28;20028;-72
2022/03/26 07:49:46;;;;;;;71.25;33.22;;;8.60;99.90;;;;;;5071620;28;20021;-73
2022/03/26 07:52:12;;;;;;;70.72;34.63;;;8.70;99.90;;;;;;5075185;28;20028;-74
2022/03/26 07:54:38;;;;;;;66.90;31.80;;;8.90;99.90;;;;;;5074934;28;20380;-72
2022/03/26 07:57:04;;;;;;;69.50;33.67;;;8.90;99.90;;;;;;5074667;28;20064;-72
2022/03/26 07:59:30;;;;;;;70.95;32.15;;;8.90;99.90;;;;;;5074946;28;20029;-72
2022/03/26 08:01:56;;;;;;;72.22;34.25;;;8.90;99.90;;;;;;5074684;28;20029;-71
2022/03/26 08:04:21;;;;;;;73.70;34.13;;;9.10;99.90;;;;;;5074390;28;20024;-71
2022/03/26 08:06:47;;;;;;;78.78;34.55;;;9.10;99.90;;;;;;5075030;28;20049;-75
2022/03/26 08:09:13;;;;;;;76.00;33.17;;;9.20;99.90;;;;;;5074285;28;20464;-72
2022/03/26 08:11:38;;;;;;;68.57;31.10;;;9.30;99.90;;;;;;5074656;28;20029;-71
2022/03/26 08:14:04;;;;;;;67.18;31.27;;;9.30;99.90;;;;;;5074901;28;20155;-73
2022/03/26 08:16:30;;;;;;;68.80;31.25;;;9.30;99.90;;;;;;5073368;28;20028;-72
2022/03/26 08:18:55;;;;;;;64.78;31.35;;;9.50;99.90;;;;;;5074106;28;20078;-72
2022/03/26 08:21:21;;;;;;;67.57;30.40;;;9.50;99.90;;;;;;5073665;28;20476;-72
2022/03/26 08:23:46;;;;;;;64.20;31.20;;;9.60;99.90;;;;;;5074141;28;20121;-72
2022/03/26 08:26:26;;;;;;;70.07;33.30;;;9.70;99.90;;;;;;5074871;28;20024;-74
2022/03/26 08:28:54;;;;;;;73.50;32.90;;;9.90;99.90;;;;;;5074585;28;20033;-73
2022/03/26 08:31:21;;;;;;;69.10;31.83;;;10.00;99.90;;;;;;5072627;28;20025;-70
2022/03/26 08:33:47;;;;;;;64.15;30.77;;;10.10;99.90;;;;;;5071822;28;20025;-72
2022/03/26 08:36:14;;;;;;;73.68;31.65;;;10.10;99.90;;;;;;5077045;28;20033;-72
2022/03/26 08:38:41;;;;;;;66.18;33.03;;;10.20;99.90;;;;;;5071254;28;20025;-71
2022/03/26 08:41:07;;;;;;;70.97;34.78;;;10.30;99.90;;;;;;5072332;28;20032;-73
2022/03/26 08:43:32;;;;;;;73.43;33.92;;;10.40;99.90;;;;;;5073034;28;20017;-72
2022/03/26 08:45:59;;;;;;;69.20;35.28;;;10.50;99.90;;;;;;5073016;28;20040;-74
2022/03/26 08:48:24;;;;;;;68.80;32.28;;;10.50;99.90;;;;;;5072713;28;20016;-73
2022/03/26 08:50:50;;;;;;;71.47;34.67;;;10.60;99.90;;;;;;5071864;28;20074;-75
2022/03/26 08:53:16;;;;;;;75.57;35.25;;;10.70;99.90;;;;;;5072661;28;20043;-73
2022/03/26 08:55:41;;;;;;;63.67;31.92;;;10.90;99.90;;;;;;5073540;28;20028;-73
2022/03/26 08:58:07;;;;;;;60.25;31.88;;;11.00;99.90;;;;;;5073255;28;20503;-74
2022/03/26 09:00:34;;;;;;;65.95;33.22;;;11.10;99.90;;;;;;5073327;28;20353;-73
2022/03/26 09:03:00;;;;;;;60.45;29.90;;;11.20;99.90;;;;;;5073723;28;20039;-73
2022/03/26 09:05:26;;;;;;;65.97;30.52;;;11.40;99.90;;;;;;5073419;28;20085;-74
2022/03/26 09:07:52;;;;;;;60.88;29.75;;;11.50;99.90;;;;;;5073303;28;20073;-73
2022/03/26 09:10:18;;;;;;;62.83;31.27;;;11.60;99.90;;;;;;5074047;28;20469;-73
2022/03/26 09:12:43;;;;;;;57.00;29.20;;;11.80;99.90;;;;;;5073344;28;20029;-73
2022/03/26 09:15:09;;;;;;;64.53;30.98;;;11.80;99.90;;;;;;5073596;28;20029;-73
2022/03/26 09:17:36;;;;;;;63.10;28.90;;;12.00;99.90;;;;;;5073742;28;20052;-72
2022/03/26 09:20:05;;;;;;;47.72;25.15;;;12.10;99.90;;;;;;5073474;28;20107;-72
2022/03/26 09:22:31;;;;;;;56.70;26.90;;;12.10;99.90;;;;;;5073233;28;20491;-73
2022/03/26 09:24:57;;;;;;;51.50;26.02;;;12.20;99.90;;;;;;5073194;28;20399;-74
2022/03/26 09:27:23;;;;;;;52.72;25.90;;;12.10;99.90;;;;;;5072472;28;20056;-73
2022/03/26 09:29:48;;;;;;;52.50;25.10;;;12.30;99.90;;;;;;5073529;28;20189;-73
2022/03/26 09:32:14;;;;;;;50.67;25.58;;;12.50;99.90;;;;;;5072758;28;20082;-73
2022/03/26 09:34:39;;;;;;;44.78;24.70;;;12.50;99.90;;;;;;5072779;28;20020;-73
2022/03/26 09:37:05;;;;;;;43.33;25.35;;;12.70;99.90;;;;;;5073271;28;20357;-73
2022/03/26 09:39:31;;;;;;;53.13;25.23;;;12.70;99.90;;;;;;5072539;28;20028;-73
2022/03/26 09:41:58;;;;;;;50.08;26.08;;;12.70;99.90;;;;;;5072554;28;20082;-74
2022/03/26 09:44:24;;;;;;;48.72;24.92;;;12.80;99.90;;;;;;5072986;28;20021;-73
2022/03/26 09:46:50;;;;;;;42.55;23.42;;;12.90;99.90;;;;;;5055007;28;20031;-73
2022/03/26 09:49:16;;;;;;;41.70;24.25;;;12.90;99.90;;;;;;5072180;28;20021;-73
2022/03/26 09:51:43;;;;;;;50.22;27.83;;;13.00;99.90;;;;;;5072884;28;20021;-73
2022/03/26 09:54:12;;;;;;;48.50;24.95;;;13.10;99.90;;;;;;5072492;28;20066;-73
2022/03/26 09:56:38;;;;;;;53.90;27.67;;;13.20;99.90;;;;;;5072471;28;20060;-73
2022/03/26 09:59:04;;;;;;;57.03;26.02;;;13.30;99.90;;;;;;5073351;28;20028;-73
2022/03/26 10:01:30;;;;;;;52.85;23.23;;;13.40;99.90;;;;;;5072428;28;20043;-73
2022/03/26 10:04:13;;;;;;;41.92;23.08;;;13.40;99.90;;;;;;5072322;28;20563;-73
2022/03/26 10:07:04;;;;;;;40.15;23.15;;;13.40;99.90;;;;;;5073395;28;20025;-73
2022/03/26 10:09:34;;;;;;;40.58;22.88;;;13.50;99.90;;;;;;5071746;28;20484;-73
2022/03/26 10:12:04;;;;;;;41.10;22.33;;;13.70;99.90;;;;;;5072873;28;20060;-73
2022/03/26 10:14:43;;;;;;;38.63;21.60;;;13.70;99.90;;;;;;5071847;28;20267;-73
2022/03/26 10:17:30;;;;;;;40.38;22.95;;;13.80;99.90;;;;;;5072166;28;20033;-73
2022/03/26 10:20:12;;;;;;;46.40;23.15;;;13.90;99.90;;;;;;5073144;28;20025;-73
2022/03/26 10:22:43;;;;;;;40.65;21.80;;;14.00;99.90;;;;;;5072167;28;20496;-73
2022/03/26 10:25:20;;;;;;;39.95;21.75;;;14.10;99.90;;;;;;5071743;28;20046;-73
2022/03/26 10:27:46;;;;;;;41.03;20.95;;;14.20;99.90;;;;;;5072341;28;20103;-75
2022/03/26 10:30:14;;;;;;;45.60;21.60;;;14.20;99.90;;;;;;5071708;28;20362;-72
2022/03/26 10:32:45;;;;;;;49.08;24.50;;;14.40;99.90;;;;;;5072473;28;20029;-72
2022/03/26 10:35:15;;;;;;;47.97;24.17;;;14.40;99.90;;;;;;5072268;28;20062;-72
2022/03/26 10:37:53;;;;;;;42.03;21.58;;;14.40;99.90;;;;;;5071941;28;20068;-72
2022/03/26 10:40:31;;;;;;;38.67;20.77;;;14.50;99.90;;;;;;5071903;28;20044;-73
2022/03/26 10:43:04;;;;;;;38.00;20.38;;;14.50;99.90;;;;;;5072370;28;20031;-73
2022/03/26 10:45:32;;;;;;;34.13;19.40;;;14.60;99.90;;;;;;5071588;28;20020;-73
2022/03/26 10:47:59;;;;;;;34.47;18.35;;;14.60;99.90;;;;;;5071962;28;20082;-73
2022/03/26 10:50:27;;;;;;;30.23;17.42;;;14.70;99.90;;;;;;5071527;28;20026;-73
2022/03/26 10:52:55;;;;;;;30.05;16.40;;;14.80;99.90;;;;;;5071482;28;20032;-73
2022/03/26 10:55:21;;;;;;;29.35;17.08;;;14.80;99.50;;;;;;5071932;28;20033;-73
2022/03/26 10:57:48;;;;;;;23.10;15.48;;;14.80;99.60;;;;;;5072241;28;20066;-73
2022/03/26 11:00:15;;;;;;;26.88;15.68;;;14.80;99.40;;;;;;5071360;28;20025;-73
2022/03/26 11:02:42;;;;;;;32.55;18.52;;;14.90;99.20;;;;;;5072025;28;20556;-74
2022/03/26 11:05:08;;;;;;;32.80;19.20;;;14.90;98.40;;;;;;5070764;28;20046;-74
2022/03/26 11:07:36;;;;;;;40.92;18.92;;;14.90;98.30;;;;;;5072168;28;20512;-74
2022/03/26 11:10:04;;;;;;;33.15;17.42;;;15.00;97.70;;;;;;5071985;28;20068;-73
2022/03/26 11:12:31;;;;;;;34.88;18.52;;;15.10;98.00;;;;;;5071359;28;20025;-73
2022/03/26 11:14:57;;;;;;;28.23;15.95;;;15.10;97.80;;;;;;5072236;28;20048;-74
2022/03/26 11:17:51;;;;;;;33.83;19.50;;;15.20;96.70;;;;;;5071557;28;20378;-73
2022/03/26 11:20:41;;;;;;;44.95;22.65;;;15.30;96.70;;;;;;5071561;28;20055;-72
2022/03/26 11:23:32;;;;;;;36.72;20.45;;;15.30;97.00;;;;;;5072395;28;20040;-73
2022/03/26 11:26:45;;;;;;;42.53;22.52;;;15.30;95.40;;;;;;5073621;28;20491;-73
2022/03/26 11:29:44;;;;;;;46.00;22.88;;;15.30;96.40;;;;;;4975291;28;20045;-72
2022/03/26 11:32:29;;;;;;;48.70;23.80;;;15.40;96.20;;;;;;4974374;28;20099;-73
2022/03/26 11:34:59;;;;;;;47.13;23.80;;;15.40;95.60;;;;;;5056930;28;20032;-73
2022/03/26 11:37:25;;;;;;;47.83;23.47;;;15.50;95.00;;;;;;5075283;28;20021;-73
2022/03/26 11:39:51;;;;;;;48.05;24.90;;;15.50;94.10;;;;;;5075938;28;20029;-73
2022/03/26 11:42:30;;;;;;;48.50;24.25;;;15.40;94.50;;;;;;5074755;28;20039;-73
2022/03/26 11:51:22;;;;;;;61.05;31.10;;;15.70;94.20;;;;;;5075621;28;20036;-72
2022/03/26 11:53:55;;;;;;;58.45;27.83;;;15.70;94.00;;;;;;5075282;28;20059;-74
2022/03/26 11:56:30;;;;;;;64.32;30.65;;;15.90;94.30;;;;;;5074594;28;20067;-73
2022/03/26 11:59:25;;;;;;;70.20;32.78;;;15.90;94.10;;;;;;5075200;28;20032;-74
2022/03/26 12:01:51;;;;;;;64.72;32.63;;;15.90;94.10;;;;;;5074656;28;20036;-73
2022/03/26 12:04:26;;;;;;;65.75;34.17;;;15.90;94.70;;;;;;5074917;28;20017;-73
2022/03/26 12:06:56;;;;;;;73.50;36.60;;;16.00;94.40;;;;;;5074707;28;20091;-73
2022/03/26 12:09:35;;;;;;;71.15;35.78;;;16.10;94.80;;;;;;5074098;28;20023;-73
2022/03/26 12:12:15;;;;;;;70.72;33.53;;;16.10;94.80;;;;;;5074654;28;20032;-73
2022/03/26 12:15:02;;;;;;;67.82;33.60;;;16.10;94.00;;;;;;5074753;28;20036;-73
2022/03/26 12:17:52;;;;;;;63.22;33.13;;;16.30;93.90;;;;;;5073871;28;20484;-72
2022/03/26 12:20:34;;;;;;;66.73;33.03;;;16.30;93.00;;;;;;5073998;28;20032;-73
2022/03/26 12:23:06;;;;;;;69.88;33.22;;;16.40;93.00;;;;;;5074050;28;20446;-74
2022/03/26 12:25:38;;;;;;;60.22;31.33;;;16.40;93.20;;;;;;5074605;28;20025;-74
2022/03/26 12:28:05;;;;;;;68.70;33.53;;;16.40;93.40;;;;;;5074480;28;20028;-73
2022/03/26 12:30:31;;;;;;;66.03;34.25;;;16.60;92.90;;;;;;5073703;28;20036;-73
2022/03/26 12:32:59;;;;;;;67.43;35.28;;;16.70;93.10;;;;;;5074908;28;20035;-73
2022/03/26 12:35:26;;;;;;;67.07;33.17;;;16.80;92.20;;;;;;5074145;28;20029;-73
2022/03/26 12:37:52;;;;;;;66.88;34.80;;;16.80;91.70;;;;;;5073500;28;20032;-73
2022/03/26 12:40:18;;;;;;;61.72;32.05;;;16.80;91.30;;;;;;5074103;28;20473;-73
2022/03/26 12:42:44;;;;;;;66.85;33.63;;;16.90;91.70;;;;;;5074126;28;20488;-73